sensor_id;sensor_type;location;lat;lon;timestamp;pressure;altitude;pressure_sealevel;temperature;humidity
62237;BME280;69163;48.778;2.308;2023-07-13T00:00:08;100970.13;;;23.35;30.63
62237;BME280;69163;48.778;2.308;2023-07-13T00:02:32;100972.84;;;23.61;30.51
62237;BME280;69163;48.778;2.308;2023-07-13T00:04:58;100971.78;;;23.75;30.62
62237;BME280;69163;48.778;2.308;2023-07-13T00:07:24;100971.93;;;23.52;30.53
62237;BME280;69163;48.778;2.308;2023-07-13T00:09:49;100974.29;;;23.53;30.51
62237;BME280;69163;48.778;2.308;2023-07-13T00:12:25;100976.26;;;23.00;30.53
62237;BME280;69163;48.778;2.308;2023-07-13T00:14:39;100976.51;;;23.46;30.55
62237;BME280;69163;48.778;2.308;2023-07-13T00:17:05;100967.31;;;23.48;30.66
62237;BME280;69163;48.778;2.308;2023-07-13T00:19:30;100968.56;;;23.47;30.42
62237;BME280;69163;48.778;2.308;2023-07-13T00:21:55;100970.48;;;23.49;30.38
62237;BME280;69163;48.778;2.308;2023-07-13T00:24:20;100977.15;;;23.54;30.32
62237;BME280;69163;48.778;2.308;2023-07-13T00:26:45;100976.09;;;23.22;30.50
62237;BME280;69163;48.778;2.308;2023-07-13T00:29:11;100976.84;;;23.22;30.54
62237;BME280;69163;48.778;2.308;2023-07-13T00:31:36;100981.12;;;22.99;30.40
62237;BME280;69163;48.778;2.308;2023-07-13T00:34:00;100978.83;;;23.47;30.27
62237;BME280;69163;48.778;2.308;2023-07-13T00:36:27;100982.98;;;23.20;30.31
62237;BME280;69163;48.778;2.308;2023-07-13T00:38:51;100984.53;;;23.39;30.35
62237;BME280;69163;48.778;2.308;2023-07-13T00:41:17;100983.91;;;23.38;30.23
62237;BME280;69163;48.778;2.308;2023-07-13T00:43:42;100987.91;;;23.11;30.16
62237;BME280;69163;48.778;2.308;2023-07-13T00:46:18;100987.95;;;23.35;30.11
62237;BME280;69163;48.778;2.308;2023-07-13T00:48:34;100993.84;;;23.36;30.04
62237;BME280;69163;48.778;2.308;2023-07-13T00:50:59;100994.17;;;23.35;30.01
62237;BME280;69163;48.778;2.308;2023-07-13T00:53:24;100993.02;;;23.39;30.03
62237;BME280;69163;48.778;2.308;2023-07-13T00:55:50;100997.52;;;23.36;30.09
62237;BME280;69163;48.778;2.308;2023-07-13T00:58:13;101002.24;;;23.37;30.03
62237;BME280;69163;48.778;2.308;2023-07-13T01:00:39;101005.22;;;23.35;30.07
62237;BME280;69163;48.778;2.308;2023-07-13T01:03:04;101005.78;;;23.33;30.00
62237;BME280;69163;48.778;2.308;2023-07-13T01:05:28;101005.14;;;23.32;30.05
62237;BME280;69163;48.778;2.308;2023-07-13T01:07:54;101001.71;;;23.56;30.04
62237;BME280;69163;48.778;2.308;2023-07-13T01:10:22;101004.68;;;23.25;30.15
62237;BME280;69163;48.778;2.308;2023-07-13T01:12:45;101006.22;;;23.25;30.10
62237;BME280;69163;48.778;2.308;2023-07-13T01:17:35;101005.94;;;23.03;30.08
62237;BME280;69163;48.778;2.308;2023-07-13T01:20:00;101007.66;;;23.21;30.24
62237;BME280;69163;48.778;2.308;2023-07-13T01:22:26;101010.41;;;23.22;30.16
62237;BME280;69163;48.778;2.308;2023-07-13T01:24:51;101010.17;;;23.28;30.08
62237;BME280;69163;48.778;2.308;2023-07-13T01:27:20;101008.63;;;23.52;30.10
62237;BME280;69163;48.778;2.308;2023-07-13T01:29:43;101008.89;;;23.32;29.99
62237;BME280;69163;48.778;2.308;2023-07-13T01:32:08;101011.18;;;23.37;29.94
62237;BME280;69163;48.778;2.308;2023-07-13T01:34:32;101012.84;;;23.24;30.07
62237;BME280;69163;48.778;2.308;2023-07-13T01:36:57;101014.47;;;23.18;30.17
62237;BME280;69163;48.778;2.308;2023-07-13T01:39:22;101017.75;;;23.17;30.18
62237;BME280;69163;48.778;2.308;2023-07-13T01:41:47;101018.11;;;23.21;30.14
62237;BME280;69163;48.778;2.308;2023-07-13T01:44:12;101016.42;;;22.94;30.24
62237;BME280;69163;48.778;2.308;2023-07-13T01:46:37;101017.25;;;23.74;30.11
62237;BME280;69163;48.778;2.308;2023-07-13T01:49:03;101015.35;;;23.49;30.10
62237;BME280;69163;48.778;2.308;2023-07-13T01:51:28;101017.30;;;23.25;30.11
62237;BME280;69163;48.778;2.308;2023-07-13T01:53:53;101018.82;;;23.23;30.21
62237;BME280;69163;48.778;2.308;2023-07-13T01:56:19;101023.25;;;23.03;30.11
62237;BME280;69163;48.778;2.308;2023-07-13T01:58:45;101024.81;;;23.29;30.11
62237;BME280;69163;48.778;2.308;2023-07-13T02:01:09;101024.87;;;23.30;30.05
62237;BME280;69163;48.778;2.308;2023-07-13T02:03:34;101023.95;;;23.30;29.89
62237;BME280;69163;48.778;2.308;2023-07-13T02:05:59;101026.82;;;23.30;29.85
62237;BME280;69163;48.778;2.308;2023-07-13T02:08:25;101027.57;;;23.54;29.85
62237;BME280;69163;48.778;2.308;2023-07-13T02:10:50;101027.60;;;23.54;29.84
62237;BME280;69163;48.778;2.308;2023-07-13T02:13:15;101026.24;;;23.32;29.87
62237;BME280;69163;48.778;2.308;2023-07-13T02:15:40;101028.61;;;23.54;29.92
62237;BME280;69163;48.778;2.308;2023-07-13T02:18:05;101027.10;;;23.30;29.78
62237;BME280;69163;48.778;2.308;2023-07-13T02:20:31;101027.11;;;23.34;29.79
62237;BME280;69163;48.778;2.308;2023-07-13T02:22:56;101029.14;;;23.32;29.73
62237;BME280;69163;48.778;2.308;2023-07-13T02:25:21;101030.65;;;23.32;29.70
62237;BME280;69163;48.778;2.308;2023-07-13T02:27:46;101025.85;;;23.30;29.63
62237;BME280;69163;48.778;2.308;2023-07-13T02:30:12;101021.12;;;23.50;29.66
62237;BME280;69163;48.778;2.308;2023-07-13T02:32:37;101016.22;;;23.49;29.61
62237;BME280;69163;48.778;2.308;2023-07-13T02:35:03;101016.04;;;23.25;29.63
62237;BME280;69163;48.778;2.308;2023-07-13T02:37:28;101013.71;;;23.26;29.50
62237;BME280;69163;48.778;2.308;2023-07-13T02:39:53;101011.55;;;23.22;29.46
62237;BME280;69163;48.778;2.308;2023-07-13T02:42:17;101012.07;;;23.20;29.56
62237;BME280;69163;48.778;2.308;2023-07-13T02:44:43;101019.15;;;23.18;29.46
62237;BME280;69163;48.778;2.308;2023-07-13T02:47:08;101021.95;;;23.38;29.62
62237;BME280;69163;48.778;2.308;2023-07-13T02:49:33;101018.97;;;23.38;29.45
62237;BME280;69163;48.778;2.308;2023-07-13T02:51:59;101021.78;;;23.16;29.46
62237;BME280;69163;48.778;2.308;2023-07-13T02:54:24;101022.97;;;23.17;29.49
62237;BME280;69163;48.778;2.308;2023-07-13T02:56:49;101024.24;;;23.17;29.37
62237;BME280;69163;48.778;2.308;2023-07-13T02:59:14;101026.32;;;23.42;29.42
62237;BME280;69163;48.778;2.308;2023-07-13T03:01:40;101026.03;;;23.18;29.31
62237;BME280;69163;48.778;2.308;2023-07-13T03:04:05;101026.20;;;23.40;29.39
62237;BME280;69163;48.778;2.308;2023-07-13T03:06:31;101026.04;;;23.36;29.49
62237;BME280;69163;48.778;2.308;2023-07-13T03:08:55;101029.07;;;23.41;29.33
62237;BME280;69163;48.778;2.308;2023-07-13T03:11:21;101034.08;;;23.38;29.33
62237;BME280;69163;48.778;2.308;2023-07-13T03:13:46;101037.26;;;23.33;29.28
62237;BME280;69163;48.778;2.308;2023-07-13T03:16:12;101036.99;;;23.12;29.64
62237;BME280;69163;48.778;2.308;2023-07-13T03:18:37;101036.62;;;23.05;30.15
62237;BME280;69163;48.778;2.308;2023-07-13T03:21:01;101038.79;;;22.81;30.46
62237;BME280;69163;48.778;2.308;2023-07-13T03:23:27;101042.91;;;23.04;30.38
62237;BME280;69163;48.778;2.308;2023-07-13T03:26:01;101042.42;;;23.31;30.45
62237;BME280;69163;48.778;2.308;2023-07-13T03:28:17;101042.38;;;23.48;30.66
62237;BME280;69163;48.778;2.308;2023-07-13T03:30:43;101040.32;;;23.06;30.65
62237;BME280;69163;48.778;2.308;2023-07-13T03:33:08;101042.45;;;23.25;30.74
62237;BME280;69163;48.778;2.308;2023-07-13T03:35:36;101044.73;;;23.22;30.78
62237;BME280;69163;48.778;2.308;2023-07-13T03:37:58;101049.09;;;22.98;30.68
62237;BME280;69163;48.778;2.308;2023-07-13T03:40:23;101048.98;;;23.21;30.88
62237;BME280;69163;48.778;2.308;2023-07-13T03:42:49;101051.54;;;22.94;30.82
62237;BME280;69163;48.778;2.308;2023-07-13T03:45:13;101051.48;;;23.22;30.81
62237;BME280;69163;48.778;2.308;2023-07-13T03:47:38;101050.74;;;23.23;30.72
62237;BME280;69163;48.778;2.308;2023-07-13T03:50:05;101050.00;;;23.21;30.64
62237;BME280;69163;48.778;2.308;2023-07-13T03:52:29;101049.56;;;23.45;30.76
62237;BME280;69163;48.778;2.308;2023-07-13T03:54:55;101048.38;;;22.96;30.75
62237;BME280;69163;48.778;2.308;2023-07-13T03:57:20;101050.85;;;22.96;30.78
62237;BME280;69163;48.778;2.308;2023-07-13T03:59:45;101051.58;;;22.93;30.96
62237;BME280;69163;48.778;2.308;2023-07-13T04:02:10;101052.67;;;23.14;30.92
62237;BME280;69163;48.778;2.308;2023-07-13T04:04:35;101054.39;;;22.93;30.85
62237;BME280;69163;48.778;2.308;2023-07-13T04:07:00;101057.87;;;22.95;30.77
62237;BME280;69163;48.778;2.308;2023-07-13T04:09:26;101060.39;;;23.18;30.96
62237;BME280;69163;48.778;2.308;2023-07-13T04:11:51;101063.88;;;23.40;30.99
62237;BME280;69163;48.778;2.308;2023-07-13T04:14:16;101066.29;;;23.16;30.96
62237;BME280;69163;48.778;2.308;2023-07-13T04:16:42;101064.51;;;23.20;30.92
62237;BME280;69163;48.778;2.308;2023-07-13T04:19:07;101069.05;;;22.95;30.89
62237;BME280;69163;48.778;2.308;2023-07-13T04:21:32;101068.52;;;23.20;30.81
62237;BME280;69163;48.778;2.308;2023-07-13T04:23:57;101069.48;;;22.94;30.97
62237;BME280;69163;48.778;2.308;2023-07-13T04:26:22;101072.32;;;22.91;31.05
62237;BME280;69163;48.778;2.308;2023-07-13T04:28:47;101078.14;;;23.13;31.04
62237;BME280;69163;48.778;2.308;2023-07-13T04:31:13;101081.63;;;23.41;31.00
62237;BME280;69163;48.778;2.308;2023-07-13T04:33:38;101081.78;;;23.16;30.87
62237;BME280;69163;48.778;2.308;2023-07-13T04:36:04;101082.53;;;22.89;31.01
62237;BME280;69163;48.778;2.308;2023-07-13T04:38:30;101084.27;;;23.11;31.09
62237;BME280;69163;48.778;2.308;2023-07-13T04:40:56;101081.55;;;23.30;31.08
62237;BME280;69163;48.778;2.308;2023-07-13T04:43:19;101083.03;;;22.83;31.08
62237;BME280;69163;48.778;2.308;2023-07-13T04:45:44;101083.23;;;23.06;31.12
62237;BME280;69163;48.778;2.308;2023-07-13T04:48:09;101086.51;;;23.07;31.16
62237;BME280;69163;48.778;2.308;2023-07-13T04:50:37;101085.73;;;23.07;31.16
62237;BME280;69163;48.778;2.308;2023-07-13T04:53:00;101085.63;;;23.06;31.20
62237;BME280;69163;48.778;2.308;2023-07-13T04:55:26;101087.41;;;22.86;31.18
62237;BME280;69163;48.778;2.308;2023-07-13T04:57:51;101090.39;;;23.06;31.19
62237;BME280;69163;48.778;2.308;2023-07-13T05:00:15;101087.49;;;23.07;31.27
62237;BME280;69163;48.778;2.308;2023-07-13T05:02:42;101083.98;;;22.80;31.43
62237;BME280;69163;48.778;2.308;2023-07-13T05:05:07;101081.10;;;23.29;31.31
62237;BME280;69163;48.778;2.308;2023-07-13T05:07:31;101082.04;;;23.04;31.29
62237;BME280;69163;48.778;2.308;2023-07-13T05:09:56;101089.57;;;22.82;31.29
62237;BME280;69163;48.778;2.308;2023-07-13T05:12:22;101088.33;;;23.09;31.22
62237;BME280;69163;48.778;2.308;2023-07-13T05:14:47;101088.41;;;23.06;31.34
62237;BME280;69163;48.778;2.308;2023-07-13T05:17:12;101088.54;;;22.82;31.33
62237;BME280;69163;48.778;2.308;2023-07-13T05:19:37;101083.65;;;23.09;31.25
62237;BME280;69163;48.778;2.308;2023-07-13T05:22:02;101083.47;;;23.08;31.29
62237;BME280;69163;48.778;2.308;2023-07-13T05:24:27;101088.51;;;22.86;31.30
62237;BME280;69163;48.778;2.308;2023-07-13T05:26:53;101093.76;;;23.29;31.36
62237;BME280;69163;48.778;2.308;2023-07-13T05:29:18;101099.85;;;23.29;31.25
62237;BME280;69163;48.778;2.308;2023-07-13T05:31:44;101108.16;;;23.25;31.40
62237;BME280;69163;48.778;2.308;2023-07-13T05:34:09;101108.75;;;23.01;31.44
62237;BME280;69163;48.778;2.308;2023-07-13T05:36:34;101108.44;;;23.02;31.42
62237;BME280;69163;48.778;2.308;2023-07-13T05:38:59;101113.00;;;22.78;31.42
62237;BME280;69163;48.778;2.308;2023-07-13T05:41:25;101113.49;;;22.77;31.50
62237;BME280;69163;48.778;2.308;2023-07-13T05:43:49;101112.28;;;22.76;31.46
62237;BME280;69163;48.778;2.308;2023-07-13T05:46:14;101110.10;;;22.95;31.60
62237;BME280;69163;48.778;2.308;2023-07-13T05:48:40;101116.54;;;23.20;31.60
62237;BME280;69163;48.778;2.308;2023-07-13T05:51:05;101119.50;;;23.17;31.60
62237;BME280;69163;48.778;2.308;2023-07-13T05:53:30;101116.05;;;22.66;31.63
62237;BME280;69163;48.778;2.308;2023-07-13T05:55:56;101114.43;;;22.91;31.59
62237;BME280;69163;48.778;2.308;2023-07-13T05:58:21;101114.60;;;22.97;31.43
62237;BME280;69163;48.778;2.308;2023-07-13T06:00:46;101113.35;;;23.01;31.43
62237;BME280;69163;48.778;2.308;2023-07-13T06:03:11;101113.68;;;22.78;31.59
62237;BME280;69163;48.778;2.308;2023-07-13T06:05:38;101115.40;;;23.04;31.53
62237;BME280;69163;48.778;2.308;2023-07-13T06:08:01;101116.08;;;22.81;31.39
62237;BME280;69163;48.778;2.308;2023-07-13T06:10:27;101121.50;;;22.79;31.40
62237;BME280;69163;48.778;2.308;2023-07-13T06:12:52;101127.05;;;23.29;31.34
62237;BME280;69163;48.778;2.308;2023-07-13T06:15:18;101129.34;;;23.06;31.39
62237;BME280;69163;48.778;2.308;2023-07-13T06:17:43;101132.73;;;23.04;31.54
62237;BME280;69163;48.778;2.308;2023-07-13T06:20:08;101135.12;;;23.03;31.73
62237;BME280;69163;48.778;2.308;2023-07-13T06:22:33;101136.15;;;22.84;31.36
62237;BME280;69163;48.778;2.308;2023-07-13T06:24:58;101132.32;;;23.04;31.45
62237;BME280;69163;48.778;2.308;2023-07-13T06:27:24;101132.25;;;22.84;31.47
62237;BME280;69163;48.778;2.308;2023-07-13T06:29:49;101137.87;;;23.09;31.47
62237;BME280;69163;48.778;2.308;2023-07-13T06:32:13;101143.11;;;23.12;31.45
62237;BME280;69163;48.778;2.308;2023-07-13T06:34:39;101145.20;;;22.88;31.42
62237;BME280;69163;48.778;2.308;2023-07-13T06:37:05;101144.82;;;23.32;31.41
62237;BME280;69163;48.778;2.308;2023-07-13T06:39:30;101147.60;;;22.93;30.79
62237;BME280;69163;48.778;2.308;2023-07-13T06:41:55;101142.51;;;22.34;31.47
62237;BME280;69163;48.778;2.308;2023-07-13T06:44:20;101145.44;;;21.68;32.16
62237;BME280;69163;48.778;2.308;2023-07-13T06:46:45;101141.41;;;21.25;32.94
62237;BME280;69163;48.778;2.308;2023-07-13T06:49:11;101144.67;;;21.16;33.62
62237;BME280;69163;48.778;2.308;2023-07-13T06:51:36;101146.51;;;20.94;34.15
62237;BME280;69163;48.778;2.308;2023-07-13T06:54:00;101142.33;;;20.71;34.45
62237;BME280;69163;48.778;2.308;2023-07-13T06:56:26;101148.02;;;20.54;35.01
62237;BME280;69163;48.778;2.308;2023-07-13T06:58:51;101148.09;;;20.65;35.17
62237;BME280;69163;48.778;2.308;2023-07-13T07:01:17;101151.67;;;20.56;35.63
62237;BME280;69163;48.778;2.308;2023-07-13T07:03:42;101152.90;;;20.27;35.73
62237;BME280;69163;48.778;2.308;2023-07-13T07:06:13;101152.61;;;20.60;36.08
62237;BME280;69163;48.778;2.308;2023-07-13T07:08:32;101153.38;;;20.21;36.14
62237;BME280;69163;48.778;2.308;2023-07-13T07:10:58;101155.20;;;20.43;36.12
62237;BME280;69163;48.778;2.308;2023-07-13T07:13:23;101156.46;;;20.60;36.37
62237;BME280;69163;48.778;2.308;2023-07-13T07:15:50;101158.74;;;20.11;36.82
62237;BME280;69163;48.778;2.308;2023-07-13T07:18:13;101161.24;;;20.01;36.64
62237;BME280;69163;48.778;2.308;2023-07-13T07:20:38;101163.94;;;20.32;37.00
62237;BME280;69163;48.778;2.308;2023-07-13T07:23:04;101168.02;;;20.17;37.19
62237;BME280;69163;48.778;2.308;2023-07-13T07:25:29;101167.09;;;19.93;37.53
62237;BME280;69163;48.778;2.308;2023-07-13T07:27:54;101173.06;;;20.23;37.17
62237;BME280;69163;48.778;2.308;2023-07-13T07:30:19;101171.31;;;20.16;37.37
62237;BME280;69163;48.778;2.308;2023-07-13T07:32:44;101170.18;;;20.07;37.41
62237;BME280;69163;48.778;2.308;2023-07-13T07:35:10;101171.04;;;20.13;37.41
62237;BME280;69163;48.778;2.308;2023-07-13T07:37:35;101172.14;;;20.11;37.30
62237;BME280;69163;48.778;2.308;2023-07-13T07:40:00;101172.93;;;20.15;37.24
62237;BME280;69163;48.778;2.308;2023-07-13T07:42:26;101173.68;;;19.99;37.30
62237;BME280;69163;48.778;2.308;2023-07-13T07:44:51;101172.75;;;20.19;37.17
62237;BME280;69163;48.778;2.308;2023-07-13T07:47:16;101176.13;;;20.28;37.15
62237;BME280;69163;48.778;2.308;2023-07-13T07:49:42;101175.20;;;20.29;37.17
62237;BME280;69163;48.778;2.308;2023-07-13T07:52:08;101178.74;;;20.19;37.08
62237;BME280;69163;48.778;2.308;2023-07-13T07:54:32;101181.44;;;20.23;36.96
62237;BME280;69163;48.778;2.308;2023-07-13T07:56:57;101181.59;;;20.11;37.17
62237;BME280;69163;48.778;2.308;2023-07-13T07:59:23;101182.08;;;20.12;37.27
62237;BME280;69163;48.778;2.308;2023-07-13T08:01:48;101189.87;;;20.21;37.18
62237;BME280;69163;48.778;2.308;2023-07-13T08:04:13;101183.09;;;20.48;37.00
62237;BME280;69163;48.778;2.308;2023-07-13T08:06:38;101182.06;;;20.72;36.76
62237;BME280;69163;48.778;2.308;2023-07-13T08:09:06;101182.84;;;20.68;36.78
62237;BME280;69163;48.778;2.308;2023-07-13T08:11:29;101185.79;;;20.38;36.65
62237;BME280;69163;48.778;2.308;2023-07-13T08:13:53;101182.47;;;21.02;36.53
62237;BME280;69163;48.778;2.308;2023-07-13T08:16:19;101185.36;;;21.16;36.47
62237;BME280;69163;48.778;2.308;2023-07-13T08:18:44;101187.32;;;21.23;36.48
62237;BME280;69163;48.778;2.308;2023-07-13T08:21:09;101190.95;;;21.32;36.47
62237;BME280;69163;48.778;2.308;2023-07-13T08:23:35;101192.75;;;21.41;36.45
62237;BME280;69163;48.778;2.308;2023-07-13T08:26:00;101189.47;;;21.48;36.42
62237;BME280;69163;48.778;2.308;2023-07-13T08:28:26;101190.09;;;21.54;36.37
62237;BME280;69163;48.778;2.308;2023-07-13T08:30:50;101190.67;;;21.63;36.36
62237;BME280;69163;48.778;2.308;2023-07-13T08:33:15;101190.57;;;21.46;36.32
62237;BME280;69163;48.778;2.308;2023-07-13T08:35:41;101189.35;;;21.27;36.30
62237;BME280;69163;48.778;2.308;2023-07-13T08:38:05;101188.28;;;21.34;36.27
62237;BME280;69163;48.778;2.308;2023-07-13T08:40:31;101189.45;;;21.36;36.28
62237;BME280;69163;48.778;2.308;2023-07-13T08:42:58;101189.20;;;21.67;36.24
62237;BME280;69163;48.778;2.308;2023-07-13T08:45:25;101190.02;;;21.71;36.22
62237;BME280;69163;48.778;2.308;2023-07-13T08:47:52;101191.68;;;21.76;36.19
62237;BME280;69163;48.778;2.308;2023-07-13T08:50:15;101189.86;;;21.58;36.13
62237;BME280;69163;48.778;2.308;2023-07-13T08:52:40;101189.58;;;21.58;36.11
62237;BME280;69163;48.778;2.308;2023-07-13T08:55:09;101191.15;;;21.89;36.07
62237;BME280;69163;48.778;2.308;2023-07-13T08:57:33;101186.69;;;21.69;36.04
62237;BME280;69163;48.778;2.308;2023-07-13T08:59:53;101195.19;;;21.75;36.00
62237;BME280;69163;48.778;2.308;2023-07-13T09:02:26;101196.81;;;21.78;36.00
62237;BME280;69163;48.778;2.308;2023-07-13T09:04:48;101199.42;;;21.84;35.95
62237;BME280;69163;48.778;2.308;2023-07-13T09:07:17;101200.99;;;21.88;35.90
62237;BME280;69163;48.778;2.308;2023-07-13T09:09:44;101199.22;;;21.88;35.87
62237;BME280;69163;48.778;2.308;2023-07-13T09:12:05;101203.57;;;21.72;35.75
62237;BME280;69163;48.778;2.308;2023-07-13T09:14:34;101205.16;;;21.96;35.70
62237;BME280;69163;48.778;2.308;2023-07-13T09:16:51;101203.38;;;21.99;35.64
62237;BME280;69163;48.778;2.308;2023-07-13T09:19:20;101199.90;;;21.99;35.64
62237;BME280;69163;48.778;2.308;2023-07-13T09:21:42;101197.60;;;21.99;35.60
62237;BME280;69163;48.778;2.308;2023-07-13T09:26:33;101191.72;;;22.11;35.59
62237;BME280;69163;48.778;2.308;2023-07-13T09:28:59;101190.37;;;22.16;35.64
62237;BME280;69163;48.778;2.308;2023-07-13T09:31:37;101190.55;;;22.20;35.65
62237;BME280;69163;48.778;2.308;2023-07-13T09:33:46;101184.25;;;22.22;35.62
62237;BME280;69163;48.778;2.308;2023-07-13T09:36:19;101187.89;;;22.22;35.57
62237;BME280;69163;48.778;2.308;2023-07-13T09:38:37;101192.25;;;21.96;35.63
62237;BME280;69163;48.778;2.308;2023-07-13T09:41:14;101196.15;;;22.19;35.66
62237;BME280;69163;48.778;2.308;2023-07-13T09:43:28;101194.35;;;21.94;35.63
62237;BME280;69163;48.778;2.308;2023-07-13T09:45:52;101193.29;;;22.18;35.67
62237;BME280;69163;48.778;2.308;2023-07-13T09:48:18;101194.32;;;22.17;35.64
62237;BME280;69163;48.778;2.308;2023-07-13T09:50:44;101189.49;;;22.44;35.54
62237;BME280;69163;48.778;2.308;2023-07-13T09:53:13;101201.18;;;22.23;35.50
62237;BME280;69163;48.778;2.308;2023-07-13T09:55:37;101204.49;;;22.22;35.44
62237;BME280;69163;48.778;2.308;2023-07-13T09:58:03;101206.98;;;22.01;35.41
62237;BME280;69163;48.778;2.308;2023-07-13T10:00:27;101203.73;;;22.24;35.35
62237;BME280;69163;48.778;2.308;2023-07-13T10:03:02;101208.72;;;22.03;35.13
62237;BME280;69163;48.778;2.308;2023-07-13T10:05:14;101208.56;;;22.02;35.15
62237;BME280;69163;48.778;2.308;2023-07-13T10:07:43;101204.95;;;22.30;35.13
62237;BME280;69163;48.778;2.308;2023-07-13T10:10:13;101210.39;;;22.32;35.09
62237;BME280;69163;48.778;2.308;2023-07-13T10:12:35;101212.19;;;22.34;35.03
62237;BME280;69163;48.778;2.308;2023-07-13T10:14:57;101212.74;;;22.36;35.02
62237;BME280;69163;48.778;2.308;2023-07-13T10:17:26;101212.76;;;22.38;34.99
62237;BME280;69163;48.778;2.308;2023-07-13T10:19:48;101214.62;;;22.37;34.97
62237;BME280;69163;48.778;2.308;2023-07-13T10:22:19;101219.21;;;22.16;34.93
62237;BME280;69163;48.778;2.308;2023-07-13T10:24:37;101219.94;;;22.15;34.89
62237;BME280;69163;48.778;2.308;2023-07-13T10:27:15;101224.44;;;22.41;34.87
62237;BME280;69163;48.778;2.308;2023-07-13T10:29:29;101225.56;;;22.45;34.82
62237;BME280;69163;48.778;2.308;2023-07-13T10:31:52;101224.25;;;22.21;34.81
62237;BME280;69163;48.778;2.308;2023-07-13T10:34:17;101226.47;;;22.23;34.77
62237;BME280;69163;48.778;2.308;2023-07-13T10:36:45;101229.55;;;22.48;34.72
62237;BME280;69163;48.778;2.308;2023-07-13T10:39:10;101230.19;;;22.26;34.60
62237;BME280;69163;48.778;2.308;2023-07-13T10:41:36;101229.59;;;22.27;34.60
62237;BME280;69163;48.778;2.308;2023-07-13T10:46:26;101228.91;;;22.49;34.45
62237;BME280;69163;48.778;2.308;2023-07-13T10:48:52;101231.24;;;22.51;34.51
62237;BME280;69163;48.778;2.308;2023-07-13T10:51:17;101233.76;;;22.51;34.51
62237;BME280;69163;48.778;2.308;2023-07-13T10:53:39;101238.46;;;22.55;34.46
62237;BME280;69163;48.778;2.308;2023-07-13T10:56:06;101238.83;;;22.32;34.39
62237;BME280;69163;48.778;2.308;2023-07-13T10:58:32;101245.63;;;22.09;34.34
62237;BME280;69163;48.778;2.308;2023-07-13T11:01:03;101246.53;;;22.34;34.29
62237;BME280;69163;48.778;2.308;2023-07-13T11:03:21;101245.02;;;22.35;34.26
62237;BME280;69163;48.778;2.308;2023-07-13T11:05:48;101245.27;;;22.38;34.24
62237;BME280;69163;48.778;2.308;2023-07-13T11:08:19;101245.67;;;22.61;34.25
62237;BME280;69163;48.778;2.308;2023-07-13T11:10:47;101242.40;;;22.16;34.24
62237;BME280;69163;48.778;2.308;2023-07-13T11:15:42;101239.99;;;22.63;34.12
62237;BME280;69163;48.778;2.308;2023-07-13T11:17:54;101237.87;;;22.43;34.09
62237;BME280;69163;48.778;2.308;2023-07-13T11:22:43;101235.09;;;22.42;34.08
62237;BME280;69163;48.778;2.308;2023-07-13T11:27:38;101229.36;;;22.46;34.01
62237;BME280;69163;48.778;2.308;2023-07-13T11:30:08;101223.93;;;22.69;34.01
62237;BME280;69163;48.778;2.308;2023-07-13T11:32:24;101221.83;;;22.71;34.03
62237;BME280;69163;48.778;2.308;2023-07-13T11:34:47;101220.90;;;22.44;34.02
62237;BME280;69163;48.778;2.308;2023-07-13T11:37:15;101218.84;;;22.67;33.97
62237;BME280;69163;48.778;2.308;2023-07-13T11:39:42;101215.67;;;22.43;33.97
62237;BME280;69163;48.778;2.308;2023-07-13T11:42:05;101207.47;;;22.66;33.93
62237;BME280;69163;48.778;2.308;2023-07-13T11:44:29;101209.44;;;22.67;33.90
62237;BME280;69163;48.778;2.308;2023-07-13T11:46:55;101208.88;;;22.69;33.91
62237;BME280;69163;48.778;2.308;2023-07-13T11:49:20;101198.74;;;22.64;33.87
62237;BME280;69163;48.778;2.308;2023-07-13T11:51:44;101198.57;;;22.66;33.87
62237;BME280;69163;48.778;2.308;2023-07-13T11:54:20;101197.02;;;22.43;33.87
62237;BME280;69163;48.778;2.308;2023-07-13T11:56:35;101196.79;;;22.20;33.89
62237;BME280;69163;48.778;2.308;2023-07-13T11:59:05;101200.19;;;22.19;33.87
62237;BME280;69163;48.778;2.308;2023-07-13T12:01:26;101205.92;;;22.19;33.86
62237;BME280;69163;48.778;2.308;2023-07-13T12:03:50;101203.81;;;22.67;33.83
62237;BME280;69163;48.778;2.308;2023-07-13T12:06:25;101199.47;;;22.45;33.77
62237;BME280;69163;48.778;2.308;2023-07-13T12:08:41;101199.58;;;22.69;33.70
62237;BME280;69163;48.778;2.308;2023-07-13T12:11:14;101196.52;;;22.71;33.72
62237;BME280;69163;48.778;2.308;2023-07-13T12:13:36;101197.79;;;22.71;33.71
62237;BME280;69163;48.778;2.308;2023-07-13T12:15:57;101193.28;;;22.49;33.70
62237;BME280;69163;48.778;2.308;2023-07-13T12:18:28;101190.69;;;22.48;33.67
62237;BME280;69163;48.778;2.308;2023-07-13T12:20:47;101193.51;;;22.48;33.64
62237;BME280;69163;48.778;2.308;2023-07-13T12:23:21;101186.79;;;22.69;33.63
62237;BME280;69163;48.778;2.308;2023-07-13T12:25:36;101183.08;;;22.47;33.63
62237;BME280;69163;48.778;2.308;2023-07-13T12:30:31;101177.04;;;22.71;33.53
62237;BME280;69163;48.778;2.308;2023-07-13T12:33:01;101168.97;;;22.47;33.53
62237;BME280;69163;48.778;2.308;2023-07-13T12:35:18;101177.73;;;22.52;33.48
62237;BME280;69163;48.778;2.308;2023-07-13T12:37:44;101175.48;;;22.73;33.51
62237;BME280;69163;48.778;2.308;2023-07-13T12:40:14;101180.39;;;22.50;33.47
62237;BME280;69163;48.778;2.308;2023-07-13T12:42:34;101177.67;;;22.71;33.45
62237;BME280;69163;48.778;2.308;2023-07-13T12:45:02;101176.96;;;22.74;33.39
62237;BME280;69163;48.778;2.308;2023-07-13T12:47:25;101176.19;;;22.49;33.43
62237;BME280;69163;48.778;2.308;2023-07-13T12:49:55;101174.77;;;22.27;33.35
62237;BME280;69163;48.778;2.308;2023-07-13T12:52:17;101172.45;;;22.54;33.32
62237;BME280;69163;48.778;2.308;2023-07-13T12:54:40;101174.29;;;22.56;33.28